Terminal Aerodrome Forecast
Issued by NWS

Home | Current Version | Previous Version | Graphics & Text | Print | Product List | Glossary On
Versions: 1 2 3 4 5 6 7 8 9 10 11 12 13 14 15 16 17 18 19 20 21 22 23 24 25 26
000
FTUS43 KLOT 101845 AAA
TAFMDW
TAF AMD
KMDW 101845Z 1019/1124 25012G18KT P6SM SCT030 BKN250
     FM102000 31010KT P6SM BKN025
     FM110700 23005KT P6SM BKN050 OVC100
     FM111300 21007KT P6SM -SHSN SCT025 OVC040
      TEMPO 1116/1118 2SM -SHSN SCT020 BKN025
     FM112100 20006KT 4SM -SHSN SCT020 OVC040 PROB30 1121/1124 2SM
      -SN BKN020=

USA.gov is the U.S. government's official web portal to all federal, state and local government web resources and services.